sensor_id;sensor_type;location;lat;lon;timestamp;P1;durP1;ratioP1;P2;durP2;ratioP2
31728;SDS011;18309;43.658;1.312;2023-02-28T00:00:39;10.80;;;4.22;;
31728;SDS011;18309;43.658;1.312;2023-02-28T00:03:05;6.13;;;3.13;;
31728;SDS011;18309;43.658;1.312;2023-02-28T00:05:31;11.38;;;3.75;;
31728;SDS011;18309;43.658;1.312;2023-02-28T00:07:57;6.22;;;3.47;;
31728;SDS011;18309;43.658;1.312;2023-02-28T00:10:26;7.25;;;3.60;;
31728;SDS011;18309;43.658;1.312;2023-02-28T00:12:55;7.90;;;3.53;;
31728;SDS011;18309;43.658;1.312;2023-02-28T00:15:24;10.57;;;3.83;;
31728;SDS011;18309;43.658;1.312;2023-02-28T00:17:50;10.13;;;3.50;;
31728;SDS011;18309;43.658;1.312;2023-02-28T00:20:16;11.63;;;4.20;;
31728;SDS011;18309;43.658;1.312;2023-02-28T00:22:43;6.88;;;4.05;;
31728;SDS011;18309;43.658;1.312;2023-02-28T00:25:11;7.50;;;3.55;;
31728;SDS011;18309;43.658;1.312;2023-02-28T00:27:38;8.55;;;3.58;;
31728;SDS011;18309;43.658;1.312;2023-02-28T00:30:05;14.98;;;5.35;;
31728;SDS011;18309;43.658;1.312;2023-02-28T00:32:33;10.00;;;3.88;;
31728;SDS011;18309;43.658;1.312;2023-02-28T00:34:59;7.20;;;2.95;;
31728;SDS011;18309;43.658;1.312;2023-02-28T00:37:25;8.15;;;3.33;;
31728;SDS011;18309;43.658;1.312;2023-02-28T00:39:51;8.63;;;3.88;;
31728;SDS011;18309;43.658;1.312;2023-02-28T00:42:16;8.50;;;3.55;;
31728;SDS011;18309;43.658;1.312;2023-02-28T00:44:42;8.88;;;4.07;;
31728;SDS011;18309;43.658;1.312;2023-02-28T00:47:08;7.78;;;4.07;;
31728;SDS011;18309;43.658;1.312;2023-02-28T00:49:33;7.88;;;3.50;;
31728;SDS011;18309;43.658;1.312;2023-02-28T00:51:59;10.68;;;4.10;;
31728;SDS011;18309;43.658;1.312;2023-02-28T00:54:25;9.48;;;3.47;;
31728;SDS011;18309;43.658;1.312;2023-02-28T00:56:50;10.73;;;3.90;;
31728;SDS011;18309;43.658;1.312;2023-02-28T00:59:16;6.10;;;3.42;;
31728;SDS011;18309;43.658;1.312;2023-02-28T01:01:43;8.80;;;3.63;;
31728;SDS011;18309;43.658;1.312;2023-02-28T01:04:10;7.95;;;3.63;;
31728;SDS011;18309;43.658;1.312;2023-02-28T01:06:36;7.38;;;3.78;;
31728;SDS011;18309;43.658;1.312;2023-02-28T01:09:03;9.70;;;3.58;;
31728;SDS011;18309;43.658;1.312;2023-02-28T01:11:29;9.32;;;3.65;;
31728;SDS011;18309;43.658;1.312;2023-02-28T01:13:55;8.52;;;3.83;;
31728;SDS011;18309;43.658;1.312;2023-02-28T01:16:21;12.68;;;4.30;;
31728;SDS011;18309;43.658;1.312;2023-02-28T01:18:47;6.72;;;3.40;;
31728;SDS011;18309;43.658;1.312;2023-02-28T01:21:14;8.85;;;3.55;;
31728;SDS011;18309;43.658;1.312;2023-02-28T01:23:41;10.90;;;3.75;;
31728;SDS011;18309;43.658;1.312;2023-02-28T01:26:08;7.20;;;3.63;;
31728;SDS011;18309;43.658;1.312;2023-02-28T01:28:38;9.82;;;3.67;;
31728;SDS011;18309;43.658;1.312;2023-02-28T01:31:04;9.48;;;4.22;;
31728;SDS011;18309;43.658;1.312;2023-02-28T01:33:30;6.47;;;3.40;;
31728;SDS011;18309;43.658;1.312;2023-02-28T01:36:00;6.60;;;3.90;;
31728;SDS011;18309;43.658;1.312;2023-02-28T01:38:30;8.45;;;3.45;;
31728;SDS011;18309;43.658;1.312;2023-02-28T01:40:57;6.82;;;2.95;;
31728;SDS011;18309;43.658;1.312;2023-02-28T01:43:23;9.98;;;3.80;;
31728;SDS011;18309;43.658;1.312;2023-02-28T01:45:50;8.80;;;3.40;;
31728;SDS011;18309;43.658;1.312;2023-02-28T01:48:17;8.32;;;4.13;;
31728;SDS011;18309;43.658;1.312;2023-02-28T01:50:45;5.63;;;3.33;;
31728;SDS011;18309;43.658;1.312;2023-02-28T01:53:16;6.25;;;3.60;;
31728;SDS011;18309;43.658;1.312;2023-02-28T01:55:45;7.43;;;3.90;;
31728;SDS011;18309;43.658;1.312;2023-02-28T01:58:13;11.30;;;4.32;;
31728;SDS011;18309;43.658;1.312;2023-02-28T02:00:40;11.65;;;4.35;;
31728;SDS011;18309;43.658;1.312;2023-02-28T02:03:12;12.30;;;4.13;;
31728;SDS011;18309;43.658;1.312;2023-02-28T02:05:39;8.60;;;4.05;;
31728;SDS011;18309;43.658;1.312;2023-02-28T02:08:12;8.50;;;3.95;;
31728;SDS011;18309;43.658;1.312;2023-02-28T02:13:27;7.72;;;4.22;;
31728;SDS011;18309;43.658;1.312;2023-02-28T02:16:19;9.75;;;3.95;;
31728;SDS011;18309;43.658;1.312;2023-02-28T02:25:59;8.27;;;4.10;;
31728;SDS011;18309;43.658;1.312;2023-02-28T02:28:55;7.22;;;3.97;;
31728;SDS011;18309;43.658;1.312;2023-02-28T02:31:37;9.82;;;4.07;;
31728;SDS011;18309;43.658;1.312;2023-02-28T02:34:25;9.25;;;3.95;;
31728;SDS011;18309;43.658;1.312;2023-02-28T02:37:21;8.10;;;3.85;;
31728;SDS011;18309;43.658;1.312;2023-02-28T02:40:38;9.00;;;4.30;;
31728;SDS011;18309;43.658;1.312;2023-02-28T02:44:10;8.93;;;4.57;;
31728;SDS011;18309;43.658;1.312;2023-02-28T02:46:17;8.57;;;4.03;;
31728;SDS011;18309;43.658;1.312;2023-02-28T02:48:46;9.07;;;3.92;;
31728;SDS011;18309;43.658;1.312;2023-02-28T02:51:16;9.23;;;4.47;;
31728;SDS011;18309;43.658;1.312;2023-02-28T02:53:50;8.27;;;4.28;;
31728;SDS011;18309;43.658;1.312;2023-02-28T02:56:21;9.35;;;4.63;;
31728;SDS011;18309;43.658;1.312;2023-02-28T02:58:50;8.23;;;4.15;;
31728;SDS011;18309;43.658;1.312;2023-02-28T03:01:20;8.45;;;4.03;;
31728;SDS011;18309;43.658;1.312;2023-02-28T03:03:56;10.40;;;5.75;;
31728;SDS011;18309;43.658;1.312;2023-02-28T03:06:23;11.27;;;4.63;;
31728;SDS011;18309;43.658;1.312;2023-02-28T03:08:49;9.57;;;4.55;;
31728;SDS011;18309;43.658;1.312;2023-02-28T03:11:15;11.23;;;4.22;;
31728;SDS011;18309;43.658;1.312;2023-02-28T03:16:45;10.75;;;4.97;;
31728;SDS011;18309;43.658;1.312;2023-02-28T03:20:24;9.52;;;4.07;;
31728;SDS011;18309;43.658;1.312;2023-02-28T03:26:04;8.70;;;4.10;;
31728;SDS011;18309;43.658;1.312;2023-02-28T03:28:32;12.18;;;5.47;;
31728;SDS011;18309;43.658;1.312;2023-02-28T03:31:27;10.52;;;4.07;;
31728;SDS011;18309;43.658;1.312;2023-02-28T03:34:05;10.00;;;4.82;;
31728;SDS011;18309;43.658;1.312;2023-02-28T03:36:45;7.30;;;4.38;;
31728;SDS011;18309;43.658;1.312;2023-02-28T03:39:19;10.95;;;4.78;;
31728;SDS011;18309;43.658;1.312;2023-02-28T03:41:52;11.18;;;5.38;;
31728;SDS011;18309;43.658;1.312;2023-02-28T03:44:33;11.50;;;4.80;;
31728;SDS011;18309;43.658;1.312;2023-02-28T03:47:08;15.60;;;4.93;;
31728;SDS011;18309;43.658;1.312;2023-02-28T03:49:45;9.65;;;5.30;;
31728;SDS011;18309;43.658;1.312;2023-02-28T03:52:17;9.07;;;4.90;;
31728;SDS011;18309;43.658;1.312;2023-02-28T03:54:47;10.50;;;4.90;;
31728;SDS011;18309;43.658;1.312;2023-02-28T03:57:27;10.88;;;5.18;;
31728;SDS011;18309;43.658;1.312;2023-02-28T03:59:59;11.30;;;4.80;;
31728;SDS011;18309;43.658;1.312;2023-02-28T04:02:30;9.70;;;4.47;;
31728;SDS011;18309;43.658;1.312;2023-02-28T04:04:56;9.10;;;4.93;;
31728;SDS011;18309;43.658;1.312;2023-02-28T04:07:22;12.23;;;5.28;;
31728;SDS011;18309;43.658;1.312;2023-02-28T04:09:48;7.65;;;4.68;;
31728;SDS011;18309;43.658;1.312;2023-02-28T04:12:14;9.90;;;4.85;;
31728;SDS011;18309;43.658;1.312;2023-02-28T04:14:39;13.63;;;5.05;;
31728;SDS011;18309;43.658;1.312;2023-02-28T04:17:05;10.45;;;4.90;;
31728;SDS011;18309;43.658;1.312;2023-02-28T04:19:30;9.60;;;4.63;;
31728;SDS011;18309;43.658;1.312;2023-02-28T04:21:56;11.63;;;5.05;;
31728;SDS011;18309;43.658;1.312;2023-02-28T04:24:23;11.13;;;5.20;;
31728;SDS011;18309;43.658;1.312;2023-02-28T04:26:51;12.05;;;5.03;;
31728;SDS011;18309;43.658;1.312;2023-02-28T04:29:22;7.93;;;4.60;;
31728;SDS011;18309;43.658;1.312;2023-02-28T04:31:50;7.70;;;4.25;;
31728;SDS011;18309;43.658;1.312;2023-02-28T04:34:18;14.02;;;4.63;;
31728;SDS011;18309;43.658;1.312;2023-02-28T04:36:44;11.70;;;4.95;;
31728;SDS011;18309;43.658;1.312;2023-02-28T04:39:11;12.75;;;5.22;;
31728;SDS011;18309;43.658;1.312;2023-02-28T04:41:37;8.60;;;5.05;;
31728;SDS011;18309;43.658;1.312;2023-02-28T04:44:03;10.02;;;4.65;;
31728;SDS011;18309;43.658;1.312;2023-02-28T04:46:28;10.40;;;4.70;;
31728;SDS011;18309;43.658;1.312;2023-02-28T04:48:55;10.55;;;5.45;;
31728;SDS011;18309;43.658;1.312;2023-02-28T04:51:21;11.80;;;5.20;;
31728;SDS011;18309;43.658;1.312;2023-02-28T04:53:47;10.13;;;4.43;;
31728;SDS011;18309;43.658;1.312;2023-02-28T04:56:14;6.95;;;4.22;;
31728;SDS011;18309;43.658;1.312;2023-02-28T04:58:41;12.30;;;5.43;;
31728;SDS011;18309;43.658;1.312;2023-02-28T05:03:53;10.52;;;5.03;;
31728;SDS011;18309;43.658;1.312;2023-02-28T05:06:21;9.52;;;4.90;;
31728;SDS011;18309;43.658;1.312;2023-02-28T05:08:52;13.80;;;5.45;;
31728;SDS011;18309;43.658;1.312;2023-02-28T05:13:45;12.52;;;5.70;;
31728;SDS011;18309;43.658;1.312;2023-02-28T05:16:12;9.40;;;4.63;;
31728;SDS011;18309;43.658;1.312;2023-02-28T05:18:38;9.23;;;5.22;;
31728;SDS011;18309;43.658;1.312;2023-02-28T05:21:04;11.55;;;5.50;;
31728;SDS011;18309;43.658;1.312;2023-02-28T05:23:30;11.88;;;5.30;;
31728;SDS011;18309;43.658;1.312;2023-02-28T05:25:56;10.93;;;5.28;;
31728;SDS011;18309;43.658;1.312;2023-02-28T05:28:21;11.65;;;4.95;;
31728;SDS011;18309;43.658;1.312;2023-02-28T05:30:47;9.88;;;5.45;;
31728;SDS011;18309;43.658;1.312;2023-02-28T05:33:13;12.55;;;5.05;;
31728;SDS011;18309;43.658;1.312;2023-02-28T05:35:39;14.40;;;5.47;;
31728;SDS011;18309;43.658;1.312;2023-02-28T05:38:06;13.65;;;5.57;;
31728;SDS011;18309;43.658;1.312;2023-02-28T05:40:32;11.88;;;5.85;;
31728;SDS011;18309;43.658;1.312;2023-02-28T05:42:57;10.38;;;5.95;;
31728;SDS011;18309;43.658;1.312;2023-02-28T05:45:23;10.73;;;5.68;;
31728;SDS011;18309;43.658;1.312;2023-02-28T05:47:49;13.10;;;5.63;;
31728;SDS011;18309;43.658;1.312;2023-02-28T05:50:18;10.80;;;5.55;;
31728;SDS011;18309;43.658;1.312;2023-02-28T05:52:44;9.93;;;5.40;;
31728;SDS011;18309;43.658;1.312;2023-02-28T05:55:17;10.77;;;5.72;;
31728;SDS011;18309;43.658;1.312;2023-02-28T05:57:43;10.82;;;5.70;;
31728;SDS011;18309;43.658;1.312;2023-02-28T06:00:09;10.98;;;6.32;;
31728;SDS011;18309;43.658;1.312;2023-02-28T06:02:36;14.63;;;6.72;;
31728;SDS011;18309;43.658;1.312;2023-02-28T06:05:03;11.15;;;5.63;;
31728;SDS011;18309;43.658;1.312;2023-02-28T06:07:29;12.93;;;5.35;;
31728;SDS011;18309;43.658;1.312;2023-02-28T06:09:54;12.68;;;5.70;;
31728;SDS011;18309;43.658;1.312;2023-02-28T06:12:20;10.07;;;5.60;;
31728;SDS011;18309;43.658;1.312;2023-02-28T06:14:45;11.18;;;5.63;;
31728;SDS011;18309;43.658;1.312;2023-02-28T06:17:11;10.50;;;5.97;;
31728;SDS011;18309;43.658;1.312;2023-02-28T06:19:37;14.55;;;5.80;;
31728;SDS011;18309;43.658;1.312;2023-02-28T06:22:06;11.82;;;6.50;;
31728;SDS011;18309;43.658;1.312;2023-02-28T06:24:32;14.20;;;6.05;;
31728;SDS011;18309;43.658;1.312;2023-02-28T06:26:57;17.63;;;6.35;;
31728;SDS011;18309;43.658;1.312;2023-02-28T06:29:30;11.13;;;5.93;;
31728;SDS011;18309;43.658;1.312;2023-02-28T06:31:57;13.60;;;6.47;;
31728;SDS011;18309;43.658;1.312;2023-02-28T06:34:23;13.18;;;6.50;;
31728;SDS011;18309;43.658;1.312;2023-02-28T06:36:50;10.98;;;5.68;;
31728;SDS011;18309;43.658;1.312;2023-02-28T06:39:16;11.05;;;5.57;;
31728;SDS011;18309;43.658;1.312;2023-02-28T06:41:42;9.63;;;5.95;;
31728;SDS011;18309;43.658;1.312;2023-02-28T06:44:17;10.90;;;6.82;;
31728;SDS011;18309;43.658;1.312;2023-02-28T06:46:43;21.73;;;8.18;;
31728;SDS011;18309;43.658;1.312;2023-02-28T06:49:10;16.52;;;9.02;;
31728;SDS011;18309;43.658;1.312;2023-02-28T06:51:37;15.48;;;8.25;;
31728;SDS011;18309;43.658;1.312;2023-02-28T06:54:04;16.85;;;8.30;;
31728;SDS011;18309;43.658;1.312;2023-02-28T06:56:30;15.30;;;8.15;;
31728;SDS011;18309;43.658;1.312;2023-02-28T06:58:56;28.92;;;9.70;;
31728;SDS011;18309;43.658;1.312;2023-02-28T07:01:22;13.80;;;8.88;;
31728;SDS011;18309;43.658;1.312;2023-02-28T07:03:49;26.50;;;8.07;;
31728;SDS011;18309;43.658;1.312;2023-02-28T07:06:17;15.02;;;6.65;;
31728;SDS011;18309;43.658;1.312;2023-02-28T07:08:44;32.55;;;10.02;;
31728;SDS011;18309;43.658;1.312;2023-02-28T07:11:09;158.93;;;18.45;;
31728;SDS011;18309;43.658;1.312;2023-02-28T07:13:36;217.10;;;27.65;;
31728;SDS011;18309;43.658;1.312;2023-02-28T07:16:03;120.88;;;18.35;;
31728;SDS011;18309;43.658;1.312;2023-02-28T07:18:30;44.80;;;11.25;;
31728;SDS011;18309;43.658;1.312;2023-02-28T07:20:57;25.63;;;9.35;;
31728;SDS011;18309;43.658;1.312;2023-02-28T07:23:23;17.17;;;8.00;;
31728;SDS011;18309;43.658;1.312;2023-02-28T07:25:49;18.15;;;8.07;;
31728;SDS011;18309;43.658;1.312;2023-02-28T07:28:15;17.95;;;6.95;;
31728;SDS011;18309;43.658;1.312;2023-02-28T07:30:41;113.47;;;13.38;;
31728;SDS011;18309;43.658;1.312;2023-02-28T07:33:07;143.25;;;19.17;;
31728;SDS011;18309;43.658;1.312;2023-02-28T07:35:33;45.88;;;11.75;;
31728;SDS011;18309;43.658;1.312;2023-02-28T07:37:59;34.40;;;12.52;;
31728;SDS011;18309;43.658;1.312;2023-02-28T07:40:25;21.55;;;7.93;;
31728;SDS011;18309;43.658;1.312;2023-02-28T07:42:51;30.50;;;10.88;;
31728;SDS011;18309;43.658;1.312;2023-02-28T07:45:17;68.05;;;11.50;;
31728;SDS011;18309;43.658;1.312;2023-02-28T07:47:44;26.73;;;8.15;;
31728;SDS011;18309;43.658;1.312;2023-02-28T07:50:11;13.10;;;8.07;;
31728;SDS011;18309;43.658;1.312;2023-02-28T07:52:39;18.77;;;7.43;;
31728;SDS011;18309;43.658;1.312;2023-02-28T07:55:06;17.92;;;7.60;;
31728;SDS011;18309;43.658;1.312;2023-02-28T07:57:33;74.07;;;12.68;;
31728;SDS011;18309;43.658;1.312;2023-02-28T07:59:58;103.07;;;13.07;;
31728;SDS011;18309;43.658;1.312;2023-02-28T08:02:24;55.42;;;11.77;;
31728;SDS011;18309;43.658;1.312;2023-02-28T08:04:50;23.20;;;8.85;;
31728;SDS011;18309;43.658;1.312;2023-02-28T08:07:16;15.60;;;6.25;;
31728;SDS011;18309;43.658;1.312;2023-02-28T08:09:44;54.97;;;9.27;;
31728;SDS011;18309;43.658;1.312;2023-02-28T08:12:10;26.05;;;7.90;;
31728;SDS011;18309;43.658;1.312;2023-02-28T08:14:57;12.20;;;6.07;;
31728;SDS011;18309;43.658;1.312;2023-02-28T08:17:52;13.23;;;6.15;;
31728;SDS011;18309;43.658;1.312;2023-02-28T08:20:18;18.00;;;6.30;;
31728;SDS011;18309;43.658;1.312;2023-02-28T08:22:44;16.52;;;6.28;;
31728;SDS011;18309;43.658;1.312;2023-02-28T08:25:10;11.32;;;5.50;;
31728;SDS011;18309;43.658;1.312;2023-02-28T08:27:36;14.30;;;6.43;;
31728;SDS011;18309;43.658;1.312;2023-02-28T08:30:02;11.68;;;5.57;;
31728;SDS011;18309;43.658;1.312;2023-02-28T08:32:28;10.65;;;6.07;;
31728;SDS011;18309;43.658;1.312;2023-02-28T08:34:54;17.85;;;6.38;;
31728;SDS011;18309;43.658;1.312;2023-02-28T08:37:19;13.52;;;5.97;;
31728;SDS011;18309;43.658;1.312;2023-02-28T08:39:45;10.73;;;5.40;;
31728;SDS011;18309;43.658;1.312;2023-02-28T08:42:11;14.90;;;6.28;;
31728;SDS011;18309;43.658;1.312;2023-02-28T08:44:36;12.82;;;6.15;;
31728;SDS011;18309;43.658;1.312;2023-02-28T08:47:02;10.55;;;5.90;;
31728;SDS011;18309;43.658;1.312;2023-02-28T08:49:28;20.77;;;6.55;;
31728;SDS011;18309;43.658;1.312;2023-02-28T08:51:54;14.85;;;7.07;;
31728;SDS011;18309;43.658;1.312;2023-02-28T08:54:22;22.77;;;7.13;;
31728;SDS011;18309;43.658;1.312;2023-02-28T08:56:48;17.00;;;6.57;;
31728;SDS011;18309;43.658;1.312;2023-02-28T08:59:14;11.38;;;6.22;;
31728;SDS011;18309;43.658;1.312;2023-02-28T09:01:40;15.63;;;6.10;;
31728;SDS011;18309;43.658;1.312;2023-02-28T09:04:08;10.45;;;5.82;;
31728;SDS011;18309;43.658;1.312;2023-02-28T09:06:36;13.00;;;6.22;;
31728;SDS011;18309;43.658;1.312;2023-02-28T09:09:02;12.50;;;6.00;;
31728;SDS011;18309;43.658;1.312;2023-02-28T09:11:30;12.27;;;6.65;;
31728;SDS011;18309;43.658;1.312;2023-02-28T09:13:57;15.07;;;6.18;;
31728;SDS011;18309;43.658;1.312;2023-02-28T09:16:24;11.18;;;5.40;;
31728;SDS011;18309;43.658;1.312;2023-02-28T09:18:50;14.23;;;5.95;;
31728;SDS011;18309;43.658;1.312;2023-02-28T09:21:16;16.67;;;6.38;;
31728;SDS011;18309;43.658;1.312;2023-02-28T09:23:44;19.38;;;6.10;;
31728;SDS011;18309;43.658;1.312;2023-02-28T09:26:15;9.05;;;5.78;;
31728;SDS011;18309;43.658;1.312;2023-02-28T09:28:41;12.87;;;6.07;;
31728;SDS011;18309;43.658;1.312;2023-02-28T09:31:10;12.82;;;6.03;;
31728;SDS011;18309;43.658;1.312;2023-02-28T09:33:41;8.82;;;5.38;;
31728;SDS011;18309;43.658;1.312;2023-02-28T09:36:06;11.40;;;5.47;;
31728;SDS011;18309;43.658;1.312;2023-02-28T09:38:33;21.90;;;6.28;;
31728;SDS011;18309;43.658;1.312;2023-02-28T09:41:00;17.00;;;6.55;;
31728;SDS011;18309;43.658;1.312;2023-02-28T09:43:30;12.68;;;6.32;;
31728;SDS011;18309;43.658;1.312;2023-02-28T09:49:08;12.82;;;5.53;;
31728;SDS011;18309;43.658;1.312;2023-02-28T09:54:15;9.10;;;5.03;;
31728;SDS011;18309;43.658;1.312;2023-02-28T09:56:44;9.30;;;5.65;;
31728;SDS011;18309;43.658;1.312;2023-02-28T10:02:17;10.30;;;5.78;;
31728;SDS011;18309;43.658;1.312;2023-02-28T10:04:59;10.63;;;5.70;;
31728;SDS011;18309;43.658;1.312;2023-02-28T10:12:53;14.30;;;5.65;;
31728;SDS011;18309;43.658;1.312;2023-02-28T10:15:23;8.43;;;4.85;;
31728;SDS011;18309;43.658;1.312;2023-02-28T10:17:53;15.77;;;7.00;;
31728;SDS011;18309;43.658;1.312;2023-02-28T10:20:22;13.82;;;5.80;;
31728;SDS011;18309;43.658;1.312;2023-02-28T10:23:08;8.80;;;5.10;;
31728;SDS011;18309;43.658;1.312;2023-02-28T10:25:45;16.88;;;6.75;;
31728;SDS011;18309;43.658;1.312;2023-02-28T10:28:17;19.45;;;6.32;;
31728;SDS011;18309;43.658;1.312;2023-02-28T10:30:45;10.10;;;5.57;;
31728;SDS011;18309;43.658;1.312;2023-02-28T10:35:48;18.52;;;6.95;;
31728;SDS011;18309;43.658;1.312;2023-02-28T10:38:16;18.25;;;6.70;;
31728;SDS011;18309;43.658;1.312;2023-02-28T10:40:49;13.88;;;6.88;;
31728;SDS011;18309;43.658;1.312;2023-02-28T10:46:23;13.02;;;6.40;;
31728;SDS011;18309;43.658;1.312;2023-02-28T10:48:39;10.57;;;6.45;;
31728;SDS011;18309;43.658;1.312;2023-02-28T10:51:10;12.93;;;6.65;;
31728;SDS011;18309;43.658;1.312;2023-02-28T10:53:51;12.13;;;5.97;;
31728;SDS011;18309;43.658;1.312;2023-02-28T10:56:19;12.07;;;5.43;;
31728;SDS011;18309;43.658;1.312;2023-02-28T11:01:19;13.05;;;5.95;;
31728;SDS011;18309;43.658;1.312;2023-02-28T11:04:49;10.50;;;5.93;;
31728;SDS011;18309;43.658;1.312;2023-02-28T11:07:16;10.80;;;6.23;;
31728;SDS011;18309;43.658;1.312;2023-02-28T11:10:18;16.42;;;6.78;;
31728;SDS011;18309;43.658;1.312;2023-02-28T11:12:43;15.38;;;5.60;;
31728;SDS011;18309;43.658;1.312;2023-02-28T11:15:23;15.52;;;5.35;;
31728;SDS011;18309;43.658;1.312;2023-02-28T11:17:54;14.98;;;5.85;;
31728;SDS011;18309;43.658;1.312;2023-02-28T11:20:36;13.43;;;5.15;;
31728;SDS011;18309;43.658;1.312;2023-02-28T11:23:03;8.80;;;4.78;;
31728;SDS011;18309;43.658;1.312;2023-02-28T11:25:36;10.32;;;5.57;;
31728;SDS011;18309;43.658;1.312;2023-02-28T11:28:23;17.80;;;6.13;;
31728;SDS011;18309;43.658;1.312;2023-02-28T11:33:50;12.15;;;6.30;;
31728;SDS011;18309;43.658;1.312;2023-02-28T11:36:24;10.32;;;5.20;;
31728;SDS011;18309;43.658;1.312;2023-02-28T11:38:51;11.13;;;5.32;;
31728;SDS011;18309;43.658;1.312;2023-02-28T11:45:29;15.10;;;5.63;;
31728;SDS011;18309;43.658;1.312;2023-02-28T11:53:10;23.33;;;6.38;;
31728;SDS011;18309;43.658;1.312;2023-02-28T11:56:05;14.20;;;5.93;;
31728;SDS011;18309;43.658;1.312;2023-02-28T12:06:55;9.60;;;5.22;;
31728;SDS011;18309;43.658;1.312;2023-02-28T12:18:00;9.95;;;5.43;;
31728;SDS011;18309;43.658;1.312;2023-02-28T12:21:14;10.93;;;5.95;;
31728;SDS011;18309;43.658;1.312;2023-02-28T12:26:34;13.07;;;5.88;;
31728;SDS011;18309;43.658;1.312;2023-02-28T12:29:04;9.85;;;5.57;;
31728;SDS011;18309;43.658;1.312;2023-02-28T12:31:36;10.07;;;5.32;;
31728;SDS011;18309;43.658;1.312;2023-02-28T12:34:08;9.20;;;5.30;;
31728;SDS011;18309;43.658;1.312;2023-02-28T12:36:38;15.57;;;6.03;;
31728;SDS011;18309;43.658;1.312;2023-02-28T12:39:48;12.80;;;5.82;;
31728;SDS011;18309;43.658;1.312;2023-02-28T12:44:39;9.35;;;5.10;;
31728;SDS011;18309;43.658;1.312;2023-02-28T12:47:15;10.98;;;5.30;;
31728;SDS011;18309;43.658;1.312;2023-02-28T12:49:46;9.52;;;4.97;;
31728;SDS011;18309;43.658;1.312;2023-02-28T12:52:23;10.10;;;5.40;;
31728;SDS011;18309;43.658;1.312;2023-02-28T12:55:00;9.35;;;5.78;;
31728;SDS011;18309;43.658;1.312;2023-02-28T12:57:39;13.20;;;5.28;;
31728;SDS011;18309;43.658;1.312;2023-02-28T13:00:14;8.88;;;4.93;;
31728;SDS011;18309;43.658;1.312;2023-02-28T13:05:32;10.90;;;5.72;;
31728;SDS011;18309;43.658;1.312;2023-02-28T13:08:15;20.55;;;7.95;;
31728;SDS011;18309;43.658;1.312;2023-02-28T13:10:52;10.02;;;5.15;;
31728;SDS011;18309;43.658;1.312;2023-02-28T13:13:25;10.23;;;4.93;;
31728;SDS011;18309;43.658;1.312;2023-02-28T13:16:04;9.23;;;4.35;;
31728;SDS011;18309;43.658;1.312;2023-02-28T13:21:02;9.93;;;5.25;;
31728;SDS011;18309;43.658;1.312;2023-02-28T13:23:41;8.20;;;4.57;;
31728;SDS011;18309;43.658;1.312;2023-02-28T13:34:36;6.82;;;4.28;;
31728;SDS011;18309;43.658;1.312;2023-02-28T13:39:54;12.05;;;4.43;;
31728;SDS011;18309;43.658;1.312;2023-02-28T13:42:32;9.20;;;4.30;;
31728;SDS011;18309;43.658;1.312;2023-02-28T13:47:32;9.85;;;4.70;;
31728;SDS011;18309;43.658;1.312;2023-02-28T14:06:32;12.38;;;5.10;;
31728;SDS011;18309;43.658;1.312;2023-02-28T14:12:18;12.60;;;5.45;;
31728;SDS011;18309;43.658;1.312;2023-02-28T14:15:02;9.98;;;5.07;;
31728;SDS011;18309;43.658;1.312;2023-02-28T14:17:30;7.18;;;4.05;;
31728;SDS011;18309;43.658;1.312;2023-02-28T14:19:57;10.00;;;5.13;;
31728;SDS011;18309;43.658;1.312;2023-02-28T14:33:42;6.07;;;3.75;;
31728;SDS011;18309;43.658;1.312;2023-02-28T14:38:52;7.18;;;4.57;;
31728;SDS011;18309;43.658;1.312;2023-02-28T14:43:56;8.77;;;4.00;;
31728;SDS011;18309;43.658;1.312;2023-02-28T14:46:37;9.10;;;4.25;;
31728;SDS011;18309;43.658;1.312;2023-02-28T14:49:05;7.20;;;3.70;;
31728;SDS011;18309;43.658;1.312;2023-02-28T14:51:34;7.60;;;3.75;;
31728;SDS011;18309;43.658;1.312;2023-02-28T14:54:00;11.07;;;4.65;;
31728;SDS011;18309;43.658;1.312;2023-02-28T14:56:37;10.60;;;4.57;;
31728;SDS011;18309;43.658;1.312;2023-02-28T14:59:05;7.28;;;4.18;;
31728;SDS011;18309;43.658;1.312;2023-02-28T15:01:47;6.95;;;4.13;;
31728;SDS011;18309;43.658;1.312;2023-02-28T15:04:18;10.18;;;5.00;;
31728;SDS011;18309;43.658;1.312;2023-02-28T15:07:09;8.93;;;4.35;;
31728;SDS011;18309;43.658;1.312;2023-02-28T15:09:36;5.90;;;3.72;;
31728;SDS011;18309;43.658;1.312;2023-02-28T15:12:02;8.73;;;4.57;;
31728;SDS011;18309;43.658;1.312;2023-02-28T15:14:28;10.60;;;4.20;;
31728;SDS011;18309;43.658;1.312;2023-02-28T15:17:05;7.55;;;4.05;;
31728;SDS011;18309;43.658;1.312;2023-02-28T15:19:42;10.27;;;3.88;;
31728;SDS011;18309;43.658;1.312;2023-02-28T15:22:14;7.18;;;3.85;;
31728;SDS011;18309;43.658;1.312;2023-02-28T15:24:45;9.18;;;4.05;;
31728;SDS011;18309;43.658;1.312;2023-02-28T15:27:24;7.82;;;4.32;;
31728;SDS011;18309;43.658;1.312;2023-02-28T15:29:57;6.50;;;4.03;;
31728;SDS011;18309;43.658;1.312;2023-02-28T15:32:29;10.20;;;3.90;;
31728;SDS011;18309;43.658;1.312;2023-02-28T15:34:59;7.18;;;4.20;;
31728;SDS011;18309;43.658;1.312;2023-02-28T15:37:56;9.05;;;3.95;;
31728;SDS011;18309;43.658;1.312;2023-02-28T15:43:14;7.45;;;4.28;;
31728;SDS011;18309;43.658;1.312;2023-02-28T15:53:50;9.70;;;4.28;;
31728;SDS011;18309;43.658;1.312;2023-02-28T15:58:59;10.18;;;4.95;;
31728;SDS011;18309;43.658;1.312;2023-02-28T16:01:36;8.73;;;4.03;;
31728;SDS011;18309;43.658;1.312;2023-02-28T16:04:04;15.80;;;4.00;;
31728;SDS011;18309;43.658;1.312;2023-02-28T16:06:39;8.27;;;4.38;;
31728;SDS011;18309;43.658;1.312;2023-02-28T16:09:09;13.52;;;4.50;;
31728;SDS011;18309;43.658;1.312;2023-02-28T16:11:40;9.00;;;4.55;;
31728;SDS011;18309;43.658;1.312;2023-02-28T16:14:22;8.63;;;4.30;;
31728;SDS011;18309;43.658;1.312;2023-02-28T16:16:56;8.45;;;3.83;;
31728;SDS011;18309;43.658;1.312;2023-02-28T16:19:30;10.93;;;5.03;;
31728;SDS011;18309;43.658;1.312;2023-02-28T16:21:56;10.82;;;4.68;;
31728;SDS011;18309;43.658;1.312;2023-02-28T16:24:22;6.82;;;4.35;;
31728;SDS011;18309;43.658;1.312;2023-02-28T16:26:49;8.35;;;4.25;;
31728;SDS011;18309;43.658;1.312;2023-02-28T16:29:30;7.18;;;4.22;;
31728;SDS011;18309;43.658;1.312;2023-02-28T16:32:01;8.35;;;4.75;;
31728;SDS011;18309;43.658;1.312;2023-02-28T16:34:30;9.40;;;3.78;;
31728;SDS011;18309;43.658;1.312;2023-02-28T16:36:55;8.27;;;4.30;;
31728;SDS011;18309;43.658;1.312;2023-02-28T16:39:21;8.82;;;4.70;;
31728;SDS011;18309;43.658;1.312;2023-02-28T16:41:47;13.13;;;5.25;;
31728;SDS011;18309;43.658;1.312;2023-02-28T16:44:20;11.38;;;4.78;;
31728;SDS011;18309;43.658;1.312;2023-02-28T16:46:52;6.97;;;4.53;;
31728;SDS011;18309;43.658;1.312;2023-02-28T16:49:18;8.95;;;4.85;;
31728;SDS011;18309;43.658;1.312;2023-02-28T16:51:43;8.75;;;4.22;;
31728;SDS011;18309;43.658;1.312;2023-02-28T16:54:09;11.65;;;4.53;;
31728;SDS011;18309;43.658;1.312;2023-02-28T16:56:35;9.85;;;5.25;;
31728;SDS011;18309;43.658;1.312;2023-02-28T16:59:01;9.57;;;5.25;;
31728;SDS011;18309;43.658;1.312;2023-02-28T17:01:27;8.80;;;4.70;;
31728;SDS011;18309;43.658;1.312;2023-02-28T17:03:53;8.85;;;5.03;;
31728;SDS011;18309;43.658;1.312;2023-02-28T17:06:21;8.07;;;4.57;;
31728;SDS011;18309;43.658;1.312;2023-02-28T17:08:51;7.90;;;4.57;;
31728;SDS011;18309;43.658;1.312;2023-02-28T17:11:17;7.47;;;4.13;;
31728;SDS011;18309;43.658;1.312;2023-02-28T17:13:43;8.43;;;4.45;;
31728;SDS011;18309;43.658;1.312;2023-02-28T17:16:15;11.00;;;4.28;;
31728;SDS011;18309;43.658;1.312;2023-02-28T17:19:00;7.93;;;4.40;;
31728;SDS011;18309;43.658;1.312;2023-02-28T17:21:28;8.85;;;4.75;;
31728;SDS011;18309;43.658;1.312;2023-02-28T17:23:54;8.82;;;4.60;;